Main page
METAR-TAF:

METAR-TAF

Airports :

Batajnica Air Base

Batajnica, Serbia

latitude: 44-56-07N, longitude: 020-15-27E, elevation: 86 m

Current weather observation

The report was made 29 minutes ago, at 10:30 UTC
Wind 14 kt from the East/Southeast, varying between East and South/Southeast
Temperature 24°C
Humidity 54%
Pressure 1017 hPa
Visibility 10 km or more
Few clouds at a height of 4300 ft

METAR: LYBT 251030Z 12014KT 090V150 9999 FEW043 24/14 Q1017 NOSIG

Time: 12:59 (10:59 UTC)

Forecast

The report was made 5 hours and 59 minutes ago, at 05:00 UTC
Forecast valid from 25 at 06 UTC to 26 at 06 UTC
Wind 5 kt from the East/Northeast
Visibility 10 km or more
no clouds below 1500 m and no cumulonimbus
Becoming
from 25 at 07 UTC to 25 at 09 UTC
Wind 12 kt from the East/Southeast
Becoming
from 25 at 18 UTC to 25 at 20 UTC
Wind 6 kt from the East/Northeast

TAF: LYBT 250500Z 2506/2606 06005KT CAVOK TX26/2513Z TN14/2603Z BECMG 2507/2509 12012KT BECMG 2518/2520 06006KT

Weather observations and forecasts of more than 4000 airports (METAR and TAF reports).

The available stations are represented by yellow and red dots on the map.

Hover mouse over dot to see the name of the station.

Then click to see weather observations and forecasts.

To change the map : click on the green buttons with a black cross to zoom in, on the green button with a dash to zoom out, or on the green arrows for adjacent maps.


METAR-TAF: